Terminal Aerodrome Forecast
Issued by NWS Jackson, MS

Home | Current Version | Previous Version | Text Only | Print | Product List | Glossary On
Versions: 1 2 3 4 5 6 7 8 9 10 11 12
000
FTUS44 KJAN 242320
TAFGWO
TAF
KGWO 242320Z 2500/2524 12008KT P6SM VCTS SCT020 SCT050CB BKN100
     FM250300 VRB20G40KT 4SM TSRA BR BKN007 OVC015CB
     FM251000 19012KT P6SM VCSH SCT008 BKN015
     FM251600 21013G21KT P6SM SCT040=

USA.gov is the U.S. government's official web portal to all federal, state and local government web resources and services.